sensor_id;sensor_type;location;lat;lon;timestamp;pressure;altitude;pressure_sealevel;temperature;humidity
74722;BME280;63470;49.826;6.740;2024-03-08T00:01:55;100148.83;;;3.43;68.06
74722;BME280;63470;49.826;6.740;2024-03-08T00:04:31;100144.25;;;3.41;68.09
74722;BME280;63470;49.826;6.740;2024-03-08T00:07:01;100142.36;;;3.40;68.12
74722;BME280;63470;49.826;6.740;2024-03-08T00:09:30;100146.55;;;3.37;68.17
74722;BME280;63470;49.826;6.740;2024-03-08T00:12:00;100148.31;;;3.33;68.26
74722;BME280;63470;49.826;6.740;2024-03-08T00:14:28;100145.23;;;3.28;68.23
74722;BME280;63470;49.826;6.740;2024-03-08T00:17:02;100148.50;;;3.23;68.22
74722;BME280;63470;49.826;6.740;2024-03-08T00:19:34;100139.83;;;3.21;68.16
74722;BME280;63470;49.826;6.740;2024-03-08T00:22:00;100143.70;;;3.17;68.10
74722;BME280;63470;49.826;6.740;2024-03-08T00:24:34;100142.77;;;3.14;68.10
74722;BME280;63470;49.826;6.740;2024-03-08T00:27:08;100141.16;;;3.09;68.12
74722;BME280;63470;49.826;6.740;2024-03-08T00:29:37;100139.83;;;3.06;68.12
74722;BME280;63470;49.826;6.740;2024-03-08T00:32:04;100136.41;;;3.06;68.04
74722;BME280;63470;49.826;6.740;2024-03-08T00:34:40;100133.95;;;3.00;68.08
74722;BME280;63470;49.826;6.740;2024-03-08T00:37:04;100133.98;;;2.97;68.17
74722;BME280;63470;49.826;6.740;2024-03-08T00:39:39;100134.11;;;2.99;68.07
74722;BME280;63470;49.826;6.740;2024-03-08T00:42:09;100134.22;;;3.01;68.02
74722;BME280;63470;49.826;6.740;2024-03-08T00:44:37;100128.98;;;2.99;68.02
74722;BME280;63470;49.826;6.740;2024-03-08T00:47:08;100131.84;;;2.95;68.10
74722;BME280;63470;49.826;6.740;2024-03-08T00:49:42;100127.30;;;2.95;68.03
74722;BME280;63470;49.826;6.740;2024-03-08T00:52:11;100126.30;;;2.94;67.98
74722;BME280;63470;49.826;6.740;2024-03-08T00:54:43;100118.27;;;2.90;68.03
74722;BME280;63470;49.826;6.740;2024-03-08T00:57:08;100121.44;;;2.91;68.13
74722;BME280;63470;49.826;6.740;2024-03-08T00:59:41;100113.37;;;2.96;68.08
74722;BME280;63470;49.826;6.740;2024-03-08T01:02:16;100107.65;;;2.95;68.02
74722;BME280;63470;49.826;6.740;2024-03-08T01:04:44;100106.77;;;2.95;67.99
74722;BME280;63470;49.826;6.740;2024-03-08T01:07:12;100103.07;;;2.95;68.00
74722;BME280;63470;49.826;6.740;2024-03-08T01:09:43;100095.29;;;2.96;67.94
74722;BME280;63470;49.826;6.740;2024-03-08T01:12:13;100092.83;;;2.96;67.94
74722;BME280;63470;49.826;6.740;2024-03-08T01:14:43;100084.94;;;2.96;67.94
74722;BME280;63470;49.826;6.740;2024-03-08T01:17:18;100087.05;;;2.96;67.96
74722;BME280;63470;49.826;6.740;2024-03-08T01:19:46;100084.12;;;2.98;68.00
74722;BME280;63470;49.826;6.740;2024-03-08T01:22:12;100075.19;;;2.99;68.01
74722;BME280;63470;49.826;6.740;2024-03-08T01:24:48;100066.94;;;2.98;68.00
74722;BME280;63470;49.826;6.740;2024-03-08T01:27:18;100065.22;;;2.98;67.98
74722;BME280;63470;49.826;6.740;2024-03-08T01:29:48;100068.31;;;2.96;68.00
74722;BME280;63470;49.826;6.740;2024-03-08T01:32:18;100065.91;;;2.94;68.05
74722;BME280;63470;49.826;6.740;2024-03-08T01:34:50;100062.20;;;2.97;68.06
74722;BME280;63470;49.826;6.740;2024-03-08T01:37:20;100058.97;;;2.98;67.99
74722;BME280;63470;49.826;6.740;2024-03-08T01:39:48;100053.96;;;2.97;68.00
74722;BME280;63470;49.826;6.740;2024-03-08T01:42:18;100052.42;;;2.96;68.05
74722;BME280;63470;49.826;6.740;2024-03-08T01:44:51;100052.50;;;2.96;68.06
74722;BME280;63470;49.826;6.740;2024-03-08T01:47:19;100051.55;;;2.93;68.13
74722;BME280;63470;49.826;6.740;2024-03-08T01:49:52;100052.47;;;2.94;68.05
74722;BME280;63470;49.826;6.740;2024-03-08T01:52:25;100051.27;;;2.94;68.04
74722;BME280;63470;49.826;6.740;2024-03-08T01:54:53;100042.62;;;2.95;67.99
74722;BME280;63470;49.826;6.740;2024-03-08T01:57:21;100041.69;;;2.91;68.08
74722;BME280;63470;49.826;6.740;2024-03-08T01:59:52;100035.52;;;2.89;68.02
74722;BME280;63470;49.826;6.740;2024-03-08T02:02:21;100029.09;;;2.83;67.99
74722;BME280;63470;49.826;6.740;2024-03-08T02:04:58;100023.86;;;2.78;68.07
74722;BME280;63470;49.826;6.740;2024-03-08T02:07:20;100024.00;;;2.78;68.15
74722;BME280;63470;49.826;6.740;2024-03-08T02:09:52;100026.41;;;2.75;68.17
74722;BME280;63470;49.826;6.740;2024-03-08T02:12:21;100019.27;;;2.77;68.09
74722;BME280;63470;49.826;6.740;2024-03-08T02:14:53;100013.72;;;2.77;68.06
74722;BME280;63470;49.826;6.740;2024-03-08T02:17:23;100016.83;;;2.79;67.99
74722;BME280;63470;49.826;6.740;2024-03-08T02:19:53;100014.69;;;2.76;67.97
74722;BME280;63470;49.826;6.740;2024-03-08T02:22:24;100010.81;;;2.71;68.05
74722;BME280;63470;49.826;6.740;2024-03-08T02:24:58;100002.79;;;2.74;68.21
74722;BME280;63470;49.826;6.740;2024-03-08T02:27:26;100005.62;;;2.80;68.25
74722;BME280;63470;49.826;6.740;2024-03-08T02:30:01;100001.44;;;2.87;68.05
74722;BME280;63470;49.826;6.740;2024-03-08T02:32:28;99998.24;;;2.91;68.08
74722;BME280;63470;49.826;6.740;2024-03-08T02:34:59;99996.05;;;2.99;67.95
74722;BME280;63470;49.826;6.740;2024-03-08T02:37:32;99985.91;;;3.03;67.88
74722;BME280;63470;49.826;6.740;2024-03-08T02:40:00;99983.83;;;3.06;67.87
74722;BME280;63470;49.826;6.740;2024-03-08T02:42:30;99981.66;;;3.12;67.95
74722;BME280;63470;49.826;6.740;2024-03-08T02:45:04;99983.12;;;3.17;67.77
74722;BME280;63470;49.826;6.740;2024-03-08T02:47:32;99980.72;;;3.14;67.77
74722;BME280;63470;49.826;6.740;2024-03-08T02:49:59;99975.83;;;3.14;67.93
74722;BME280;63470;49.826;6.740;2024-03-08T02:52:35;99977.82;;;3.18;67.93
74722;BME280;63470;49.826;6.740;2024-03-08T02:55:02;99973.43;;;3.21;67.84
74722;BME280;63470;49.826;6.740;2024-03-08T02:57:35;99969.11;;;3.20;67.91
74722;BME280;63470;49.826;6.740;2024-03-08T03:00:00;99968.70;;;3.19;67.95
74722;BME280;63470;49.826;6.740;2024-03-08T03:02:36;99963.69;;;3.23;67.95
74722;BME280;63470;49.826;6.740;2024-03-08T03:05:07;99960.45;;;3.25;67.80
74722;BME280;63470;49.826;6.740;2024-03-08T03:07:38;99957.95;;;3.22;67.94
74722;BME280;63470;49.826;6.740;2024-03-08T03:10:06;99954.25;;;3.25;67.87
74722;BME280;63470;49.826;6.740;2024-03-08T03:12:37;99954.39;;;3.23;67.81
74722;BME280;63470;49.826;6.740;2024-03-08T03:15:10;99951.01;;;3.18;67.80
74722;BME280;63470;49.826;6.740;2024-03-08T03:17:34;99949.93;;;3.09;67.86
74722;BME280;63470;49.826;6.740;2024-03-08T03:20:11;99946.28;;;3.03;67.96
74722;BME280;63470;49.826;6.740;2024-03-08T03:22:36;99943.36;;;3.02;68.13
74722;BME280;63470;49.826;6.740;2024-03-08T03:25:08;99942.17;;;3.08;68.13
74722;BME280;63470;49.826;6.740;2024-03-08T03:27:40;99942.95;;;3.13;67.96
74722;BME280;63470;49.826;6.740;2024-03-08T03:30:25;99941.02;;;3.15;67.90
74722;BME280;63470;49.826;6.740;2024-03-08T03:32:55;99943.62;;;3.15;67.93
74722;BME280;63470;49.826;6.740;2024-03-08T03:35:11;99940.28;;;3.14;67.81
74722;BME280;63470;49.826;6.740;2024-03-08T03:37:40;99939.81;;;3.08;67.83
74722;BME280;63470;49.826;6.740;2024-03-08T03:40:12;99942.36;;;3.00;67.90
74722;BME280;63470;49.826;6.740;2024-03-08T03:42:44;99937.74;;;2.96;67.99
74722;BME280;63470;49.826;6.740;2024-03-08T03:45:10;99940.16;;;2.93;67.97
74722;BME280;63470;49.826;6.740;2024-03-08T03:47:40;99938.30;;;2.92;68.00
74722;BME280;63470;49.826;6.740;2024-03-08T03:50:16;99938.27;;;2.91;67.99
74722;BME280;63470;49.826;6.740;2024-03-08T03:52:42;99934.18;;;2.91;67.97
74722;BME280;63470;49.826;6.740;2024-03-08T03:55:15;99935.72;;;2.88;67.94
74722;BME280;63470;49.826;6.740;2024-03-08T03:57:47;99929.86;;;2.83;68.00
74722;BME280;63470;49.826;6.740;2024-03-08T04:00:13;99919.07;;;2.79;68.05
74722;BME280;63470;49.826;6.740;2024-03-08T04:02:48;99923.97;;;2.79;68.07
74722;BME280;63470;49.826;6.740;2024-03-08T04:05:16;99923.62;;;2.77;68.09
74722;BME280;63470;49.826;6.740;2024-03-08T04:07:50;99925.83;;;2.78;68.11
74722;BME280;63470;49.826;6.740;2024-03-08T04:10:15;99924.39;;;2.79;68.07
74722;BME280;63470;49.826;6.740;2024-03-08T04:12:47;99923.67;;;2.75;68.11
74722;BME280;63470;49.826;6.740;2024-03-08T04:15:16;99921.14;;;2.73;68.11
74722;BME280;63470;49.826;6.740;2024-03-08T04:17:51;99924.75;;;2.76;68.41
74722;BME280;63470;49.826;6.740;2024-03-08T04:20:21;99923.76;;;2.83;68.70
74722;BME280;63470;49.826;6.740;2024-03-08T04:22:54;99919.13;;;2.91;68.77
74722;BME280;63470;49.826;6.740;2024-03-08T04:25:23;99918.45;;;2.99;68.75
74722;BME280;63470;49.826;6.740;2024-03-08T04:27:55;99917.48;;;3.07;68.62
74722;BME280;63470;49.826;6.740;2024-03-08T04:30:27;99917.96;;;3.17;68.47
74722;BME280;63470;49.826;6.740;2024-03-08T04:32:54;99912.84;;;3.26;68.20
74722;BME280;63470;49.826;6.740;2024-03-08T04:35:21;99910.48;;;3.26;67.84
74722;BME280;63470;49.826;6.740;2024-03-08T04:37:50;99913.02;;;3.19;67.59
74722;BME280;63470;49.826;6.740;2024-03-08T04:40:26;99913.05;;;3.13;67.52
74722;BME280;63470;49.826;6.740;2024-03-08T04:42:54;99913.27;;;3.02;67.52
74722;BME280;63470;49.826;6.740;2024-03-08T04:45:27;99915.28;;;2.90;67.57
74722;BME280;63470;49.826;6.740;2024-03-08T04:47:53;99916.48;;;2.78;67.63
74722;BME280;63470;49.826;6.740;2024-03-08T04:50:27;99916.70;;;2.69;67.68
74722;BME280;63470;49.826;6.740;2024-03-08T04:52:56;99909.33;;;2.59;67.73
74722;BME280;63470;49.826;6.740;2024-03-08T04:55:25;99911.77;;;2.50;67.75
74722;BME280;63470;49.826;6.740;2024-03-08T04:58:01;99916.06;;;2.40;67.79
74722;BME280;63470;49.826;6.740;2024-03-08T05:00:31;99912.12;;;2.32;67.87
74722;BME280;63470;49.826;6.740;2024-03-08T05:02:57;99912.56;;;2.27;67.92
74722;BME280;63470;49.826;6.740;2024-03-08T05:05:33;99906.45;;;2.26;67.97
74722;BME280;63470;49.826;6.740;2024-03-08T05:08:02;99907.56;;;2.24;67.98
74722;BME280;63470;49.826;6.740;2024-03-08T05:10:34;99901.31;;;2.21;67.96
74722;BME280;63470;49.826;6.740;2024-03-08T05:13:05;99897.77;;;2.17;67.94
74722;BME280;63470;49.826;6.740;2024-03-08T05:15:35;99899.75;;;2.12;67.97
74722;BME280;63470;49.826;6.740;2024-03-08T05:18:01;99901.41;;;2.08;68.00
74722;BME280;63470;49.826;6.740;2024-03-08T05:20:31;99903.58;;;2.06;68.07
74722;BME280;63470;49.826;6.740;2024-03-08T05:23:07;99898.38;;;2.06;68.07
74722;BME280;63470;49.826;6.740;2024-03-08T05:25:35;99895.41;;;2.09;68.07
74722;BME280;63470;49.826;6.740;2024-03-08T05:28:07;99895.11;;;2.12;68.02
74722;BME280;63470;49.826;6.740;2024-03-08T05:30:38;99892.55;;;2.15;68.03
74722;BME280;63470;49.826;6.740;2024-03-08T05:33:09;99896.11;;;2.21;67.99
74722;BME280;63470;49.826;6.740;2024-03-08T05:35:37;99891.92;;;2.25;67.96
74722;BME280;63470;49.826;6.740;2024-03-08T05:38:05;99898.44;;;2.25;67.94
74722;BME280;63470;49.826;6.740;2024-03-08T05:40:35;99893.88;;;2.25;67.96
74722;BME280;63470;49.826;6.740;2024-03-08T05:43:06;99890.38;;;2.25;67.99
74722;BME280;63470;49.826;6.740;2024-03-08T05:45:36;99887.42;;;2.23;67.98
74722;BME280;63470;49.826;6.740;2024-03-08T05:48:08;99891.09;;;2.22;68.05
74722;BME280;63470;49.826;6.740;2024-03-08T05:50:38;99887.89;;;2.21;68.01
74722;BME280;63470;49.826;6.740;2024-03-08T05:53:08;99886.80;;;2.19;68.06
74722;BME280;63470;49.826;6.740;2024-03-08T05:55:44;99886.39;;;2.17;68.05
74722;BME280;63470;49.826;6.740;2024-03-08T05:58:12;99886.87;;;2.17;68.08
74722;BME280;63470;49.826;6.740;2024-03-08T06:00:41;99884.36;;;2.16;68.07
74722;BME280;63470;49.826;6.740;2024-03-08T06:03:15;99881.14;;;2.15;68.10
74722;BME280;63470;49.826;6.740;2024-03-08T06:05:42;99882.70;;;2.15;68.09
74722;BME280;63470;49.826;6.740;2024-03-08T06:08:12;99885.86;;;2.13;68.13
74722;BME280;63470;49.826;6.740;2024-03-08T06:10:55;99876.06;;;2.12;68.16
74722;BME280;63470;49.826;6.740;2024-03-08T06:13:16;99877.96;;;2.12;68.16
74722;BME280;63470;49.826;6.740;2024-03-08T06:15:47;99874.55;;;2.12;68.15
74722;BME280;63470;49.826;6.740;2024-03-08T06:18:19;99877.54;;;2.13;68.13
74722;BME280;63470;49.826;6.740;2024-03-08T06:20:54;99875.27;;;2.13;68.14
74722;BME280;63470;49.826;6.740;2024-03-08T06:23:28;99870.70;;;2.13;68.11
74722;BME280;63470;49.826;6.740;2024-03-08T06:26:14;99873.02;;;2.14;68.16
74722;BME280;63470;49.826;6.740;2024-03-08T06:28:15;99874.08;;;2.15;68.15
74722;BME280;63470;49.826;6.740;2024-03-08T06:30:46;99875.97;;;2.16;68.11
74722;BME280;63470;49.826;6.740;2024-03-08T06:33:17;99875.06;;;2.17;68.11
74722;BME280;63470;49.826;6.740;2024-03-08T06:35:47;99871.95;;;2.20;68.08
74722;BME280;63470;49.826;6.740;2024-03-08T06:38:17;99873.85;;;2.30;68.08
74722;BME280;63470;49.826;6.740;2024-03-08T06:40:48;99868.86;;;2.50;68.05
74722;BME280;63470;49.826;6.740;2024-03-08T06:43:19;99867.08;;;2.74;68.00
74722;BME280;63470;49.826;6.740;2024-03-08T06:45:51;99865.67;;;2.82;68.23
74722;BME280;63470;49.826;6.740;2024-03-08T06:48:19;99863.73;;;3.04;68.07
74722;BME280;63470;49.826;6.740;2024-03-08T06:50:49;99857.94;;;3.31;67.62
74722;BME280;63470;49.826;6.740;2024-03-08T06:53:19;99854.03;;;3.59;67.21
74722;BME280;63470;49.826;6.740;2024-03-08T06:55:51;99849.97;;;3.77;67.08
74722;BME280;63470;49.826;6.740;2024-03-08T06:58:20;99849.47;;;4.09;66.96
74722;BME280;63470;49.826;6.740;2024-03-08T07:00:53;99842.06;;;4.42;67.17
74722;BME280;63470;49.826;6.740;2024-03-08T07:03:22;99842.34;;;4.60;67.64
74722;BME280;63470;49.826;6.740;2024-03-08T07:05:51;99842.53;;;4.71;68.09
74722;BME280;63470;49.826;6.740;2024-03-08T07:08:23;99837.67;;;4.63;68.80
74722;BME280;63470;49.826;6.740;2024-03-08T07:10:52;99840.95;;;4.64;69.24
74722;BME280;63470;49.826;6.740;2024-03-08T07:13:23;99842.38;;;4.71;69.32
74722;BME280;63470;49.826;6.740;2024-03-08T07:15:53;99843.00;;;4.71;69.14
74722;BME280;63470;49.826;6.740;2024-03-08T07:18:24;99839.16;;;4.69;69.10
74722;BME280;63470;49.826;6.740;2024-03-08T07:20:54;99840.42;;;4.81;68.81
74722;BME280;63470;49.826;6.740;2024-03-08T07:23:59;99840.48;;;4.83;68.67
74722;BME280;63470;49.826;6.740;2024-03-08T07:25:55;99836.73;;;4.84;68.52
74722;BME280;63470;49.826;6.740;2024-03-08T07:28:25;99837.12;;;4.87;68.56
74722;BME280;63470;49.826;6.740;2024-03-08T07:31:05;99826.04;;;5.01;68.65
74722;BME280;63470;49.826;6.740;2024-03-08T07:33:28;99834.69;;;5.31;68.46
74722;BME280;63470;49.826;6.740;2024-03-08T07:35:57;99824.91;;;5.55;68.40
74722;BME280;63470;49.826;6.740;2024-03-08T07:38:26;99826.12;;;5.82;68.30
74722;BME280;63470;49.826;6.740;2024-03-08T07:40:57;99818.36;;;6.25;68.09
74722;BME280;63470;49.826;6.740;2024-03-08T07:43:27;99822.49;;;6.84;67.39
74722;BME280;63470;49.826;6.740;2024-03-08T07:46:00;99816.05;;;6.89;67.69
74722;BME280;63470;49.826;6.740;2024-03-08T07:48:28;99817.23;;;6.86;68.28
74722;BME280;63470;49.826;6.740;2024-03-08T07:50:59;99813.94;;;6.97;68.87
74722;BME280;63470;49.826;6.740;2024-03-08T07:53:29;99814.00;;;7.09;69.23
74722;BME280;63470;49.826;6.740;2024-03-08T07:56:00;99814.72;;;7.31;69.42
74722;BME280;63470;49.826;6.740;2024-03-08T07:58:30;99807.35;;;7.52;69.51
74722;BME280;63470;49.826;6.740;2024-03-08T08:01:01;99803.90;;;7.83;68.95
74722;BME280;63470;49.826;6.740;2024-03-08T08:03:32;99799.62;;;8.14;68.75
74722;BME280;63470;49.826;6.740;2024-03-08T08:06:04;99796.47;;;8.56;68.01
74722;BME280;63470;49.826;6.740;2024-03-08T08:08:33;99798.38;;;8.75;67.51
74722;BME280;63470;49.826;6.740;2024-03-08T08:11:03;99794.13;;;8.74;67.57
74722;BME280;63470;49.826;6.740;2024-03-08T08:13:34;99786.96;;;8.79;67.76
74722;BME280;63470;49.826;6.740;2024-03-08T08:16:07;99790.74;;;8.69;68.16
74722;BME280;63470;49.826;6.740;2024-03-08T08:18:37;99786.43;;;8.71;68.61
74722;BME280;63470;49.826;6.740;2024-03-08T08:21:07;99785.72;;;9.10;68.45
74722;BME280;63470;49.826;6.740;2024-03-08T08:23:36;99781.61;;;9.49;68.08
74722;BME280;63470;49.826;6.740;2024-03-08T08:26:08;99776.69;;;9.67;67.92
74722;BME280;63470;49.826;6.740;2024-03-08T08:28:44;99769.80;;;9.98;67.99
74722;BME280;63470;49.826;6.740;2024-03-08T08:31:09;99760.47;;;10.62;67.12
74722;BME280;63470;49.826;6.740;2024-03-08T08:33:40;99759.81;;;10.92;66.99
74722;BME280;63470;49.826;6.740;2024-03-08T08:36:10;99749.38;;;11.34;66.83
74722;BME280;63470;49.826;6.740;2024-03-08T08:38:43;99749.30;;;11.82;66.13
74722;BME280;63470;49.826;6.740;2024-03-08T08:41:11;99744.56;;;12.04;65.72
74722;BME280;63470;49.826;6.740;2024-03-08T08:43:44;99742.57;;;12.33;65.41
74722;BME280;63470;49.826;6.740;2024-03-08T08:46:16;99744.79;;;12.64;64.89
74722;BME280;63470;49.826;6.740;2024-03-08T08:48:43;99740.47;;;13.01;64.74
74722;BME280;63470;49.826;6.740;2024-03-08T08:51:13;99741.42;;;13.38;64.55
74722;BME280;63470;49.826;6.740;2024-03-08T08:53:48;99736.30;;;13.76;64.20
74722;BME280;63470;49.826;6.740;2024-03-08T08:56:14;99736.11;;;13.88;64.01
74722;BME280;63470;49.826;6.740;2024-03-08T08:58:45;99737.12;;;14.01;63.88
74722;BME280;63470;49.826;6.740;2024-03-08T09:01:15;99734.34;;;14.18;63.78
74722;BME280;63470;49.826;6.740;2024-03-08T09:03:47;99728.47;;;14.23;63.76
74722;BME280;63470;49.826;6.740;2024-03-08T09:06:19;99724.89;;;14.37;63.91
74722;BME280;63470;49.826;6.740;2024-03-08T09:08:48;99721.07;;;14.54;64.07
74722;BME280;63470;49.826;6.740;2024-03-08T09:11:18;99719.81;;;14.76;64.10
74722;BME280;63470;49.826;6.740;2024-03-08T09:13:49;99718.48;;;14.86;63.99
74722;BME280;63470;49.826;6.740;2024-03-08T09:16:19;99717.48;;;14.87;64.02
74722;BME280;63470;49.826;6.740;2024-03-08T09:18:49;99720.89;;;14.92;64.03
74722;BME280;63470;49.826;6.740;2024-03-08T09:21:22;99713.09;;;14.94;64.15
74722;BME280;63470;49.826;6.740;2024-03-08T09:23:51;99713.38;;;15.19;64.30
74722;BME280;63470;49.826;6.740;2024-03-08T09:26:23;99709.05;;;15.33;64.10
74722;BME280;63470;49.826;6.740;2024-03-08T09:28:51;99701.99;;;15.51;64.46
74722;BME280;63470;49.826;6.740;2024-03-08T09:31:22;99709.28;;;15.79;64.39
74722;BME280;63470;49.826;6.740;2024-03-08T09:33:52;99696.95;;;16.03;64.07
74722;BME280;63470;49.826;6.740;2024-03-08T09:36:23;99694.75;;;16.18;64.29
74722;BME280;63470;49.826;6.740;2024-03-08T09:38:53;99686.36;;;16.41;64.23
74722;BME280;63470;49.826;6.740;2024-03-08T09:41:24;99683.97;;;16.50;64.14
74722;BME280;63470;49.826;6.740;2024-03-08T09:43:58;99681.92;;;16.58;63.95
74722;BME280;63470;49.826;6.740;2024-03-08T09:46:24;99665.48;;;16.64;63.84
74722;BME280;63470;49.826;6.740;2024-03-08T09:48:55;99667.44;;;16.49;64.23
74722;BME280;63470;49.826;6.740;2024-03-08T09:51:29;99666.05;;;16.63;64.42
74722;BME280;63470;49.826;6.740;2024-03-08T09:53:57;99658.44;;;16.66;63.92
74722;BME280;63470;49.826;6.740;2024-03-08T09:56:28;99668.03;;;16.42;64.20
74722;BME280;63470;49.826;6.740;2024-03-08T09:59:30;99666.94;;;16.42;64.00
74722;BME280;63470;49.826;6.740;2024-03-08T10:01:28;99659.89;;;16.32;63.85
74722;BME280;63470;49.826;6.740;2024-03-08T10:03:59;99658.70;;;16.33;64.06
74722;BME280;63470;49.826;6.740;2024-03-08T10:06:29;99664.72;;;16.41;64.18
74722;BME280;63470;49.826;6.740;2024-03-08T10:09:00;99657.84;;;16.35;64.56
74722;BME280;63470;49.826;6.740;2024-03-08T10:11:30;99655.88;;;16.43;64.61
74722;BME280;63470;49.826;6.740;2024-03-08T10:14:02;99649.47;;;16.57;63.96
74722;BME280;63470;49.826;6.740;2024-03-08T10:16:32;99649.34;;;16.53;63.69
74722;BME280;63470;49.826;6.740;2024-03-08T10:19:04;99640.36;;;16.42;63.85
74722;BME280;63470;49.826;6.740;2024-03-08T10:21:36;99641.58;;;16.29;63.78
74722;BME280;63470;49.826;6.740;2024-03-08T10:24:04;99638.73;;;16.20;63.91
74722;BME280;63470;49.826;6.740;2024-03-08T10:26:33;99634.41;;;16.32;64.01
74722;BME280;63470;49.826;6.740;2024-03-08T10:29:04;99627.77;;;16.44;63.93
74722;BME280;63470;49.826;6.740;2024-03-08T10:31:34;99623.55;;;16.67;63.80
74722;BME280;63470;49.826;6.740;2024-03-08T10:34:05;99615.64;;;16.88;63.52
74722;BME280;63470;49.826;6.740;2024-03-08T10:36:36;99614.31;;;17.17;63.40
74722;BME280;63470;49.826;6.740;2024-03-08T10:39:18;99604.69;;;17.45;63.10
74722;BME280;63470;49.826;6.740;2024-03-08T10:41:37;99598.95;;;17.56;62.89
74722;BME280;63470;49.826;6.740;2024-03-08T10:44:34;99600.89;;;17.58;62.74
74722;BME280;63470;49.826;6.740;2024-03-08T10:49:16;99599.45;;;17.71;62.99
74722;BME280;63470;49.826;6.740;2024-03-08T10:51:39;99597.27;;;17.80;62.93
74722;BME280;63470;49.826;6.740;2024-03-08T10:54:09;99597.14;;;17.70;62.84
74722;BME280;63470;49.826;6.740;2024-03-08T10:56:40;99595.61;;;17.62;62.94
74722;BME280;63470;49.826;6.740;2024-03-08T10:59:10;99593.30;;;17.75;62.94
74722;BME280;63470;49.826;6.740;2024-03-08T11:01:40;99586.09;;;17.65;63.06
74722;BME280;63470;49.826;6.740;2024-03-08T11:04:10;99579.80;;;17.67;63.08
74722;BME280;63470;49.826;6.740;2024-03-08T11:06:45;99579.86;;;17.72;63.03
74722;BME280;63470;49.826;6.740;2024-03-08T11:09:30;99573.45;;;17.92;63.09
74722;BME280;63470;49.826;6.740;2024-03-08T11:11:43;99574.80;;;18.21;63.10
74722;BME280;63470;49.826;6.740;2024-03-08T11:14:42;99574.53;;;18.53;62.98
74722;BME280;63470;49.826;6.740;2024-03-08T11:16:43;99572.09;;;18.62;62.82
74722;BME280;63470;49.826;6.740;2024-03-08T11:21:43;99578.77;;;18.39;62.24
74722;BME280;63470;49.826;6.740;2024-03-08T11:24:14;99573.36;;;18.04;62.97
74722;BME280;63470;49.826;6.740;2024-03-08T11:26:45;99568.42;;;17.87;63.55
74722;BME280;63470;49.826;6.740;2024-03-08T11:29:33;99566.56;;;17.89;63.51
74722;BME280;63470;49.826;6.740;2024-03-08T11:31:48;99559.50;;;17.98;63.51
74722;BME280;63470;49.826;6.740;2024-03-08T11:34:17;99556.69;;;18.05;63.25
74722;BME280;63470;49.826;6.740;2024-03-08T11:36:48;99556.41;;;18.12;63.49
74722;BME280;63470;49.826;6.740;2024-03-08T11:39:16;99552.09;;;18.40;63.20
74722;BME280;63470;49.826;6.740;2024-03-08T11:41:48;99552.33;;;18.40;63.24
74722;BME280;63470;49.826;6.740;2024-03-08T11:44:18;99544.77;;;18.38;63.07
74722;BME280;63470;49.826;6.740;2024-03-08T11:46:49;99536.09;;;18.58;62.92
74722;BME280;63470;49.826;6.740;2024-03-08T11:49:17;99537.76;;;18.63;62.65
74722;BME280;63470;49.826;6.740;2024-03-08T11:51:51;99535.43;;;18.45;62.98
74722;BME280;63470;49.826;6.740;2024-03-08T11:54:18;99529.59;;;18.75;63.11
74722;BME280;63470;49.826;6.740;2024-03-08T11:56:51;99526.27;;;18.94;62.84
74722;BME280;63470;49.826;6.740;2024-03-08T11:59:19;99517.94;;;19.17;62.53
74722;BME280;63470;49.826;6.740;2024-03-08T12:02:02;99516.81;;;19.06;62.57
74722;BME280;63470;49.826;6.740;2024-03-08T12:04:20;99508.62;;;19.02;62.09
74722;BME280;63470;49.826;6.740;2024-03-08T12:06:50;99505.50;;;18.96;62.06
74722;BME280;63470;49.826;6.740;2024-03-08T12:09:23;99500.23;;;18.67;62.92
74722;BME280;63470;49.826;6.740;2024-03-08T12:11:51;99493.77;;;18.32;63.35
74722;BME280;63470;49.826;6.740;2024-03-08T12:14:23;99489.44;;;18.30;63.50
74722;BME280;63470;49.826;6.740;2024-03-08T12:16:53;99480.00;;;18.41;62.89
74722;BME280;63470;49.826;6.740;2024-03-08T12:19:23;99481.33;;;18.23;62.59
74722;BME280;63470;49.826;6.740;2024-03-08T12:21:54;99482.49;;;17.96;63.55
74722;BME280;63470;49.826;6.740;2024-03-08T12:24:25;99478.69;;;18.01;63.78
74722;BME280;63470;49.826;6.740;2024-03-08T12:26:58;99477.34;;;18.01;63.73
74722;BME280;63470;49.826;6.740;2024-03-08T12:29:28;99465.70;;;17.89;63.67
74722;BME280;63470;49.826;6.740;2024-03-08T12:32:01;99469.36;;;17.82;63.67
74722;BME280;63470;49.826;6.740;2024-03-08T12:34:32;99460.22;;;17.76;63.89
74722;BME280;63470;49.826;6.740;2024-03-08T12:36:58;99455.64;;;17.87;63.75
74722;BME280;63470;49.826;6.740;2024-03-08T12:39:30;99453.48;;;18.26;63.50
74722;BME280;63470;49.826;6.740;2024-03-08T12:42:00;99444.98;;;18.29;63.22
74722;BME280;63470;49.826;6.740;2024-03-08T12:44:30;99434.38;;;18.47;63.12
74722;BME280;63470;49.826;6.740;2024-03-08T12:47:00;99436.95;;;18.21;63.34
74722;BME280;63470;49.826;6.740;2024-03-08T12:49:32;99431.59;;;18.16;63.45
74722;BME280;63470;49.826;6.740;2024-03-08T12:52:01;99430.05;;;18.24;63.31
74722;BME280;63470;49.826;6.740;2024-03-08T12:54:32;99421.55;;;18.22;63.38
74722;BME280;63470;49.826;6.740;2024-03-08T12:57:05;99411.07;;;18.41;62.78
74722;BME280;63470;49.826;6.740;2024-03-08T12:59:33;99404.44;;;18.37;63.02
74722;BME280;63470;49.826;6.740;2024-03-08T13:02:04;99402.84;;;18.44;62.67
74722;BME280;63470;49.826;6.740;2024-03-08T13:04:34;99395.33;;;18.33;63.16
74722;BME280;63470;49.826;6.740;2024-03-08T13:07:05;99389.57;;;18.37;62.62
74722;BME280;63470;49.826;6.740;2024-03-08T13:09:38;99378.19;;;18.30;62.93
74722;BME280;63470;49.826;6.740;2024-03-08T13:12:09;99375.33;;;18.01;63.48
74722;BME280;63470;49.826;6.740;2024-03-08T13:14:40;99370.89;;;17.90;63.62
74722;BME280;63470;49.826;6.740;2024-03-08T13:17:11;99367.92;;;18.19;63.18
74722;BME280;63470;49.826;6.740;2024-03-08T13:19:39;99365.47;;;18.04;63.36
74722;BME280;63470;49.826;6.740;2024-03-08T13:22:12;99364.59;;;18.17;62.92
74722;BME280;63470;49.826;6.740;2024-03-08T13:24:39;99362.68;;;18.25;62.71
74722;BME280;63470;49.826;6.740;2024-03-08T13:27:25;99356.20;;;18.07;63.07